Time,TemperatureF,DewpointF,PressureIn,WindDirection,WindDirectionDegrees,WindSpeedMPH,WindSpeedGustMPH,Humidity,HourlyPrecipIn,Conditions,Clouds,dailyrainin,SoftwareType,DateUTC
2013-11-19 00:02:00,59.8,50.0,29.93,NW,321,0.0,1.0,70,0.00,,,0.00,weatherlink.com 1.10,2013-11-19 05:02:00,
2013-11-19 00:17:00,59.5,49.0,29.93,WSW,243,0.0,2.0,68,0.00,,,0.00,weatherlink.com 1.10,2013-11-19 05:17:00,
2013-11-19 00:32:00,59.0,48.0,29.94,West,262,0.0,3.0,66,0.00,,,0.00,weatherlink.com 1.10,2013-11-19 05:32:00,
2013-11-19 00:47:00,58.7,47.0,29.93,North,4,1.0,2.0,66,0.00,,,0.00,weatherlink.com 1.10,2013-11-19 05:47:00,
2013-11-19 01:02:00,57.8,47.0,29.94,West,273,0.0,2.0,67,0.00,,,0.00,weatherlink.com 1.10,2013-11-19 06:02:00,
2013-11-19 01:17:00,57.0,46.0,29.94,West,276,0.0,1.0,68,0.00,,,0.00,weatherlink.com 1.10,2013-11-19 06:17:00,
2013-11-19 01:32:00,56.3,45.0,29.94,NW,313,0.0,2.0,67,0.00,,,0.00,weatherlink.com 1.10,2013-11-19 06:32:00,
2013-11-19 01:47:00,56.0,44.0,29.94,WSW,253,0.0,1.0,64,0.00,,,0.00,weatherlink.com 1.10,2013-11-19 06:47:00,
2013-11-19 02:02:00,55.4,44.0,29.95,WNW,294,0.0,1.0,66,0.00,,,0.00,weatherlink.com 1.10,2013-11-19 07:02:00,
2013-11-19 02:17:00,54.5,43.0,29.96,WNW,302,0.0,1.0,66,0.00,,,0.00,weatherlink.com 1.10,2013-11-19 07:17:00,
2013-11-19 02:32:00,53.8,43.0,29.96,WNW,301,0.0,1.0,67,0.00,,,0.00,weatherlink.com 1.10,2013-11-19 07:32:00,
2013-11-19 02:47:00,52.9,42.0,29.97,WNW,301,0.0,1.0,67,0.00,,,0.00,weatherlink.com 1.10,2013-11-19 07:47:00,
2013-11-19 03:02:00,52.5,41.0,29.97,SSW,193,0.0,1.0,65,0.00,,,0.00,weatherlink.com 1.10,2013-11-19 08:02:00,
2013-11-19 03:17:00,52.8,40.0,29.98,WNW,297,0.0,2.0,63,0.00,,,0.00,weatherlink.com 1.10,2013-11-19 08:17:00,
2013-11-19 03:32:00,52.4,40.0,29.98,WNW,298,0.0,1.0,64,0.00,,,0.00,weatherlink.com 1.10,2013-11-19 08:32:00,
2013-11-19 03:47:00,52.2,41.0,29.99,SE,141,0.0,3.0,65,0.00,,,0.00,weatherlink.com 1.10,2013-11-19 08:47:00,
2013-11-19 04:03:00,51.9,40.0,29.99,SSW,212,0.0,1.0,63,0.00,,,0.00,weatherlink.com 1.10,2013-11-19 09:03:00,
2013-11-19 04:18:00,51.7,39.0,30.00,West,271,0.0,1.0,63,0.00,,,0.00,weatherlink.com 1.10,2013-11-19 09:18:00,
2013-11-19 04:33:00,51.1,39.0,30.00,NW,326,0.0,1.0,63,0.00,,,0.00,weatherlink.com 1.10,2013-11-19 09:33:00,
2013-11-19 04:48:00,50.3,39.0,30.01,NW,311,0.0,0.0,66,0.00,,,0.00,weatherlink.com 1.10,2013-11-19 09:48:00,
2013-11-19 05:03:00,50.0,39.0,30.02,ENE,73,0.0,2.0,65,0.00,,,0.00,weatherlink.com 1.10,2013-11-19 10:03:00,
2013-11-19 05:18:00,50.1,37.0,30.02,SE,127,0.0,2.0,62,0.00,,,0.00,weatherlink.com 1.10,2013-11-19 10:18:00,
2013-11-19 05:33:00,49.8,38.0,30.03,NNW,341,0.0,2.0,65,0.00,,,0.00,weatherlink.com 1.10,2013-11-19 10:33:00,
2013-11-19 05:48:00,49.1,38.0,30.03,WSW,242,0.0,1.0,67,0.00,,,0.00,weatherlink.com 1.10,2013-11-19 10:48:00,
2013-11-19 06:03:00,48.5,38.0,30.04,SSW,203,0.0,0.0,67,0.00,,,0.00,weatherlink.com 1.10,2013-11-19 11:03:00,
2013-11-19 06:18:00,48.0,38.0,30.05,NW,321,0.0,1.0,69,0.00,,,0.00,weatherlink.com 1.10,2013-11-19 11:18:00,
2013-11-19 06:33:00,47.3,38.0,30.05,NW,321,0.0,0.0,71,0.00,,,0.00,weatherlink.com 1.10,2013-11-19 11:33:00,
2013-11-19 06:48:00,46.7,38.0,30.06,NW,321,0.0,0.0,72,0.00,,,0.00,weatherlink.com 1.10,2013-11-19 11:48:00,
2013-11-19 07:03:00,45.9,39.0,30.07,NW,321,0.0,0.0,76,0.00,,,0.00,weatherlink.com 1.10,2013-11-19 12:03:00,
2013-11-19 07:18:00,45.5,38.0,30.08,NW,321,0.0,0.0,76,0.00,,,0.00,weatherlink.com 1.10,2013-11-19 12:18:00,
2013-11-19 07:33:00,45.6,39.0,30.09,WNW,287,0.0,1.0,77,0.00,,,0.00,weatherlink.com 1.10,2013-11-19 12:33:00,
2013-11-19 07:48:00,46.6,38.0,30.09,SW,230,0.0,1.0,73,0.00,,,0.00,weatherlink.com 1.10,2013-11-19 12:48:00,
2013-11-19 08:03:00,47.7,38.0,30.09,NNW,333,0.0,2.0,70,0.00,,,0.00,weatherlink.com 1.10,2013-11-19 13:03:00,
2013-11-19 08:18:00,49.0,38.0,30.10,North,349,0.0,8.0,67,0.00,,,0.00,weatherlink.com 1.10,2013-11-19 13:18:00,
2013-11-19 08:33:00,50.0,39.0,30.10,SE,146,0.0,2.0,65,0.00,,,0.00,weatherlink.com 1.10,2013-11-19 13:33:00,
2013-11-19 08:48:00,51.1,37.0,30.11,West,278,1.0,4.0,58,0.00,,,0.00,weatherlink.com 1.10,2013-11-19 13:48:00,
2013-11-19 09:03:00,52.3,38.0,30.11,SSW,210,1.0,5.0,59,0.00,,,0.00,weatherlink.com 1.10,2013-11-19 14:03:00,
2013-11-19 09:18:00,53.4,37.0,30.12,North,7,1.0,4.0,55,0.00,,,0.00,weatherlink.com 1.10,2013-11-19 14:18:00,
2013-11-19 09:33:00,54.9,37.0,30.13,SSE,155,4.0,8.0,51,0.00,,,0.00,weatherlink.com 1.10,2013-11-19 14:33:00,
2013-11-19 09:48:00,55.5,37.0,30.13,WSW,257,2.0,10.0,51,0.00,,,0.00,weatherlink.com 1.10,2013-11-19 14:48:00,
2013-11-19 10:03:00,56.5,36.0,30.14,ENE,63,5.0,8.0,46,0.00,,,0.00,weatherlink.com 1.10,2013-11-19 15:03:00,
2013-11-19 10:19:00,56.5,34.0,30.14,SSW,196,0.0,9.0,43,0.00,,,0.00,weatherlink.com 1.10,2013-11-19 15:19:00,
2013-11-19 10:34:00,57.8,35.0,30.14,NE,47,0.0,6.0,43,0.00,,,0.00,weatherlink.com 1.10,2013-11-19 15:34:00,
2013-11-19 10:49:00,57.9,35.0,30.14,SE,144,0.0,9.0,42,0.00,,,0.00,weatherlink.com 1.10,2013-11-19 15:49:00,
2013-11-19 11:04:00,58.1,35.0,30.13,NE,49,1.0,7.0,42,0.00,,,0.00,weatherlink.com 1.10,2013-11-19 16:04:00,
2013-11-19 11:19:00,58.6,35.0,30.13,NE,43,0.0,5.0,41,0.00,,,0.00,weatherlink.com 1.10,2013-11-19 16:19:00,
2013-11-19 11:34:00,59.1,35.0,30.13,WSW,241,1.0,7.0,40,0.00,,,0.00,weatherlink.com 1.10,2013-11-19 16:34:00,
2013-11-19 11:49:00,59.2,34.0,30.12,SSW,207,2.0,7.0,39,0.00,,,0.00,weatherlink.com 1.10,2013-11-19 16:49:00,
2013-11-19 12:04:00,59.3,34.0,30.12,SE,126,2.0,6.0,39,0.00,,,0.00,weatherlink.com 1.10,2013-11-19 17:04:00,
2013-11-19 12:19:00,59.1,34.0,30.11,SE,136,1.0,3.0,39,0.00,,,0.00,weatherlink.com 1.10,2013-11-19 17:19:00,
2013-11-19 12:34:00,59.4,34.0,30.11,SW,222,2.0,5.0,38,0.00,,,0.00,weatherlink.com 1.10,2013-11-19 17:34:00,
2013-11-19 12:49:00,59.4,34.0,30.11,West,259,1.0,7.0,38,0.00,,,0.00,weatherlink.com 1.10,2013-11-19 17:49:00,
2013-11-19 13:04:00,59.1,35.0,30.10,SE,135,0.0,6.0,40,0.00,,,0.00,weatherlink.com 1.10,2013-11-19 18:04:00,
2013-11-19 13:19:00,58.6,34.0,30.11,ENE,66,1.0,4.0,39,0.00,,,0.00,weatherlink.com 1.10,2013-11-19 18:19:00,
2013-11-19 13:34:00,58.6,35.0,30.10,WNW,287,1.0,2.0,42,0.00,,,0.00,weatherlink.com 1.10,2013-11-19 18:34:00,
2013-11-19 13:49:00,58.9,35.0,30.10,WSW,245,0.0,5.0,41,0.00,,,0.00,weatherlink.com 1.10,2013-11-19 18:49:00,
2013-11-19 14:04:00,58.7,34.0,30.10,North,11,1.0,3.0,40,0.00,,,0.00,weatherlink.com 1.10,2013-11-19 19:04:00,
2013-11-19 14:19:00,59.3,35.0,30.09,SE,128,2.0,2.0,41,0.00,,,0.00,weatherlink.com 1.10,2013-11-19 19:19:00,
2013-11-19 14:34:00,59.4,35.0,30.08,ENE,74,1.0,2.0,41,0.00,,,0.00,weatherlink.com 1.10,2013-11-19 19:34:00,
2013-11-19 14:49:00,59.5,34.0,30.09,NW,312,0.0,2.0,38,0.00,,,0.00,weatherlink.com 1.10,2013-11-19 19:49:00,
2013-11-19 15:04:00,59.3,33.0,30.09,SE,131,0.0,4.0,38,0.00,,,0.00,weatherlink.com 1.10,2013-11-19 20:04:00,
2013-11-19 15:34:00,58.9,34.0,30.10,SSW,209,0.0,2.0,39,0.00,,,0.00,weatherlink.com 1.10,2013-11-19 20:34:00,
2013-11-19 15:49:00,58.8,34.0,30.10,NW,307,0.0,1.0,39,0.00,,,0.00,weatherlink.com 1.10,2013-11-19 20:49:00,
2013-11-19 16:04:00,58.1,35.0,30.11,North,11,2.0,2.0,42,0.00,,,0.00,weatherlink.com 1.10,2013-11-19 21:04:00,
2013-11-19 16:19:00,57.6,37.0,30.11,WNW,300,0.0,1.0,46,0.00,,,0.00,weatherlink.com 1.10,2013-11-19 21:19:00,
2013-11-19 16:34:00,56.6,37.0,30.12,WNW,300,0.0,1.0,49,0.00,,,0.00,weatherlink.com 1.10,2013-11-19 21:34:00,
2013-11-19 16:49:00,55.1,40.0,30.12,WNW,300,0.0,0.0,58,0.00,,,0.00,weatherlink.com 1.10,2013-11-19 21:49:00,
2013-11-19 17:04:00,53.4,41.0,30.13,WNW,300,0.0,0.0,63,0.00,,,0.00,weatherlink.com 1.10,2013-11-19 22:04:00,
2013-11-19 17:19:00,51.6,42.0,30.13,WNW,300,0.0,0.0,69,0.00,,,0.00,weatherlink.com 1.10,2013-11-19 22:19:00,
2013-11-19 17:34:00,50.2,42.0,30.14,WNW,300,0.0,2.0,73,0.00,,,0.00,weatherlink.com 1.10,2013-11-19 22:34:00,
2013-11-19 17:49:00,49.1,41.0,30.14,WNW,300,0.0,0.0,74,0.00,,,0.00,weatherlink.com 1.10,2013-11-19 22:49:00,
2013-11-19 18:04:00,48.0,41.0,30.15,WNW,300,0.0,0.0,76,0.00,,,0.00,weatherlink.com 1.10,2013-11-19 23:04:00,
2013-11-19 18:19:00,47.1,42.0,30.15,WNW,300,0.0,0.0,82,0.00,,,0.00,weatherlink.com 1.10,2013-11-19 23:19:00,
2013-11-19 18:34:00,46.3,41.0,30.15,WNW,300,0.0,0.0,83,0.00,,,0.00,weatherlink.com 1.10,2013-11-19 23:34:00,
2013-11-19 18:49:00,45.6,41.0,30.15,WNW,300,0.0,0.0,85,0.00,,,0.00,weatherlink.com 1.10,2013-11-19 23:49:00,
2013-11-19 19:04:00,45.1,41.0,30.16,WNW,300,0.0,0.0,86,0.00,,,0.00,weatherlink.com 1.10,2013-11-20 00:04:00,
2013-11-19 19:34:00,45.7,42.0,30.16,NNE,24,0.0,1.0,86,0.00,,,0.00,weatherlink.com 1.10,2013-11-20 00:34:00,
2013-11-19 19:49:00,46.4,42.0,30.17,NNE,23,0.0,0.0,84,0.00,,,0.00,weatherlink.com 1.10,2013-11-20 00:49:00,
2013-11-19 20:04:00,46.6,41.0,30.17,NNE,23,0.0,0.0,81,0.00,,,0.00,weatherlink.com 1.10,2013-11-20 01:04:00,
2013-11-19 20:19:00,46.4,41.0,30.18,NNE,23,0.0,0.0,81,0.00,,,0.00,weatherlink.com 1.10,2013-11-20 01:19:00,
2013-11-19 20:34:00,45.7,41.0,30.19,NNE,23,0.0,0.0,82,0.00,,,0.00,weatherlink.com 1.10,2013-11-20 01:34:00,
2013-11-19 20:49:00,44.8,41.0,30.19,NNE,23,0.0,0.0,85,0.00,,,0.00,weatherlink.com 1.10,2013-11-20 01:49:00,
2013-11-19 21:04:00,44.4,41.0,30.20,NNE,23,0.0,0.0,87,0.00,,,0.00,weatherlink.com 1.10,2013-11-20 02:04:00,
2013-11-19 21:19:00,44.1,41.0,30.20,NNE,23,0.0,0.0,88,0.00,,,0.00,weatherlink.com 1.10,2013-11-20 02:19:00,
2013-11-19 21:34:00,43.9,41.0,30.20,NNE,23,0.0,0.0,88,0.00,,,0.00,weatherlink.com 1.10,2013-11-20 02:34:00,
2013-11-19 21:49:00,43.5,40.0,30.21,NNE,23,0.0,0.0,87,0.00,,,0.00,weatherlink.com 1.10,2013-11-20 02:49:00,
2013-11-19 22:04:00,43.6,39.0,30.22,SW,217,0.0,0.0,83,0.00,,,0.00,weatherlink.com 1.10,2013-11-20 03:04:00,
2013-11-19 22:19:00,43.3,39.0,30.21,SW,217,0.0,0.0,83,0.00,,,0.00,weatherlink.com 1.10,2013-11-20 03:19:00,
2013-11-19 22:34:00,43.2,38.0,30.22,SW,217,0.0,0.0,82,0.00,,,0.00,weatherlink.com 1.10,2013-11-20 03:34:00,
2013-11-19 22:49:00,43.0,38.0,30.22,SW,217,0.0,0.0,82,0.00,,,0.00,weatherlink.com 1.10,2013-11-20 03:49:00,
2013-11-19 23:04:00,43.1,38.0,30.22,West,264,0.0,1.0,82,0.00,,,0.00,weatherlink.com 1.10,2013-11-20 04:04:00,
2013-11-19 23:19:00,43.6,38.0,30.23,NE,45,0.0,1.0,81,0.00,,,0.00,weatherlink.com 1.10,2013-11-20 04:19:00,
2013-11-19 23:34:00,43.8,38.0,30.23,WNW,300,0.0,1.0,80,0.00,,,0.00,weatherlink.com 1.10,2013-11-20 04:34:00,
2013-11-19 23:49:00,44.0,38.0,30.23,East,82,0.0,1.0,78,0.00,,,0.00,weatherlink.com 1.10,2013-11-20 04:49:00,